createdAt,value
2018-12-03T00:02:32.889Z,12.53
2018-12-03T00:12:37.477Z,12.20
2018-12-03T00:22:41.887Z,12.17
2018-12-03T00:32:46.383Z,11.80
2018-12-03T00:42:50.592Z,11.13
2018-12-03T00:52:54.881Z,10.90
2018-12-03T01:02:58.872Z,10.60
2018-12-03T01:13:03.599Z,9.77
2018-12-03T01:23:08.068Z,10.17
2018-12-03T01:33:12.063Z,11.37
2018-12-03T01:43:16.531Z,10.40
2018-12-03T01:53:20.920Z,9.23
2018-12-03T02:03:25.345Z,11.03
2018-12-03T02:13:29.798Z,9.47
2018-12-03T02:23:34.230Z,8.73
2018-12-03T02:33:38.980Z,10.10
2018-12-03T02:43:43.060Z,9.30
2018-12-03T02:53:47.377Z,9.27
2018-12-03T03:03:51.877Z,8.77
2018-12-03T03:13:56.477Z,9.20
2018-12-03T03:24:00.465Z,8.03
2018-12-03T03:34:04.869Z,8.40
2018-12-03T03:44:09.333Z,9.00
2018-12-03T03:54:13.709Z,8.87
2018-12-03T04:04:18.131Z,8.37
2018-12-03T04:14:22.647Z,8.40
2018-12-03T04:24:26.993Z,7.83
2018-12-03T04:34:30.973Z,8.37
2018-12-03T04:44:35.366Z,7.33
2018-12-03T04:54:39.743Z,7.77
2018-12-03T05:04:44.206Z,7.93
2018-12-03T05:14:48.725Z,7.03
2018-12-03T05:24:52.887Z,7.73
2018-12-03T05:34:56.803Z,7.40
2018-12-03T05:45:01.221Z,7.70
2018-12-03T05:55:07.765Z,7.60
2018-12-03T06:05:13.059Z,7.13
2018-12-03T06:15:17.491Z,7.23
2018-12-03T06:25:24.102Z,7.13
2018-12-03T06:35:28.732Z,7.40
2018-12-03T06:45:33.313Z,7.90
2018-12-03T06:55:37.780Z,7.80
2018-12-03T07:05:41.835Z,7.50
2018-12-03T07:15:46.048Z,7.50
2018-12-03T07:25:50.600Z,7.10
2018-12-03T07:35:55.046Z,7.87
2018-12-03T07:45:59.482Z,7.87
2018-12-03T07:56:03.696Z,7.97
2018-12-03T08:06:08.114Z,7.70
2018-12-03T08:16:13.728Z,7.73
2018-12-03T08:26:17.808Z,7.83
2018-12-03T08:36:22.442Z,7.60
2018-12-03T08:46:26.773Z,8.37
2018-12-03T08:56:30.777Z,9.20
2018-12-03T09:06:34.766Z,8.43
2018-12-03T09:16:39.159Z,9.20
2018-12-03T09:26:43.746Z,8.17
2018-12-03T09:36:48.178Z,8.70
2018-12-03T09:46:52.684Z,8.40
2018-12-03T09:56:56.743Z,8.67
2018-12-03T10:07:01.321Z,8.77
2018-12-03T10:17:06.125Z,8.03
2018-12-03T10:27:12.722Z,7.13
2018-12-03T10:37:18.900Z,8.20
2018-12-03T10:47:23.599Z,7.53
2018-12-03T10:57:27.655Z,6.90
2018-12-03T11:07:32.211Z,7.40
2018-12-03T11:17:36.695Z,7.07
2018-12-03T11:27:41.243Z,6.87
2018-12-03T11:37:46.115Z,6.40
2018-12-03T11:47:50.110Z,6.80
2018-12-03T11:57:54.734Z,6.47
2018-12-03T12:07:59.284Z,6.40
2018-12-03T12:18:03.300Z,6.23
2018-12-03T12:28:07.830Z,6.20
2018-12-03T12:38:12.279Z,5.90
2018-12-03T12:48:16.659Z,5.90
2018-12-03T12:58:21.248Z,5.47
2018-12-03T13:08:25.770Z,6.77
2018-12-03T13:18:29.742Z,6.23
2018-12-03T13:28:34.120Z,6.37
2018-12-03T13:38:38.893Z,6.73
2018-12-03T13:48:43.254Z,6.23
2018-12-03T13:58:47.254Z,6.07
2018-12-03T14:08:57.620Z,5.90
2018-12-03T14:19:05.583Z,6.30
2018-12-03T14:29:10.045Z,6.13
2018-12-03T14:39:14.807Z,7.17
2018-12-03T14:49:19.325Z,6.47
2018-12-03T14:59:23.904Z,6.17
2018-12-03T15:09:27.843Z,6.70
2018-12-03T15:19:32.233Z,7.80
2018-12-03T15:29:36.328Z,7.17
2018-12-03T15:39:40.594Z,7.40
2018-12-03T15:49:44.489Z,7.57
2018-12-03T15:59:48.535Z,6.93
2018-12-03T16:09:53.178Z,7.07
2018-12-03T16:19:57.749Z,7.43
2018-12-03T16:30:01.900Z,8.13
2018-12-03T16:40:07.660Z,7.53
2018-12-03T16:50:11.706Z,8.80
2018-12-03T17:00:16.380Z,9.80
2018-12-03T17:10:21.221Z,9.80
2018-12-03T17:20:37.595Z,10.27
2018-12-03T17:30:42.119Z,10.70
2018-12-03T17:40:46.857Z,13.77
2018-12-03T17:50:51.255Z,15.57
2018-12-03T18:00:55.719Z,15.63
2018-12-03T18:11:00.180Z,15.13
2018-12-03T18:21:04.705Z,15.40
2018-12-03T18:31:09.441Z,14.03
2018-12-03T18:41:13.970Z,13.83
2018-12-03T18:51:18.566Z,12.90
2018-12-03T19:01:54.449Z,13.80
2018-12-03T19:11:58.569Z,12.93
2018-12-03T19:22:03.140Z,12.23
2018-12-03T19:32:07.115Z,12.63
2018-12-03T19:42:13.120Z,12.30
2018-12-03T19:52:17.741Z,12.20
2018-12-03T20:02:22.509Z,12.63
2018-12-03T20:12:27.039Z,17.33
2018-12-03T20:22:33.934Z,17.87
2018-12-03T20:32:44.625Z,16.53
2018-12-03T20:42:56.942Z,16.63
2018-12-03T20:53:01.455Z,15.37
2018-12-03T21:03:06.963Z,14.93
2018-12-03T21:13:10.922Z,14.53
2018-12-03T21:23:15.230Z,14.67
2018-12-03T21:33:19.740Z,14.20
2018-12-03T21:43:24.404Z,14.47
2018-12-03T21:53:28.423Z,14.70
2018-12-03T22:03:32.446Z,14.70
2018-12-03T22:13:36.854Z,13.90
2018-12-03T22:23:41.395Z,13.80
2018-12-03T22:33:45.842Z,13.60
2018-12-03T22:43:49.782Z,11.93
2018-12-03T22:53:54.359Z,13.00
2018-12-03T23:03:59.008Z,12.87
2018-12-03T23:14:04.277Z,12.83
2018-12-03T23:24:08.414Z,12.17
2018-12-03T23:34:13.167Z,11.60
2018-12-03T23:44:17.145Z,11.40
2018-12-03T23:54:21.529Z,11.67
